Flight Track Log - Related Links

Times and Time Zones

All times are in EDT time to prevent confusion due to time zone crossing. See the DAL3865 flight status page for this flight to view local times or setup timezone preferences in your user account.

Time Position Orientation Groundspeed Altitude Reporting Facility
EDT Latitude Longitude Course Direction KTS MPH feet Rate Location/Type
Sun 03:36:46 PM 40.5731 -80.2194 288° West 263 303 6,100  Level Cleveland Center
Sun 03:37:00 PM 40.5378 -80.5057 285° West  Level FlightAware Approximate
Sun 03:37:46 PM 40.5797 -80.2933 277° West 282 325 8,900  Level Cleveland Center
Sun 03:38:00 PM 40.5571 -80.6018 285° West  Level FlightAware Approximate
Sun 03:38:46 PM 40.5944 -80.3808 283° West 276 318 10,900  Level Cleveland Center
Sun 03:39:00 PM 40.5763 -80.6980 285° West  Level FlightAware Approximate
Sun 03:39:46 PM 40.6092 -80.5119 278° West 311 358 12,300  Level Cleveland Center
Sun 03:40:00 PM 40.6002 -80.7923 291° West  Level FlightAware Approximate
Sun 03:40:46 PM 40.6258 -80.6214 281° West 330 380 13,700  Level Cleveland Center
Sun 03:41:00 PM 40.6240 -80.8866 285° West  Level FlightAware Approximate
Sun 03:41:46 PM 40.6467 -80.7417 283° West 343 395 15,100  Level Cleveland Center
Sun 03:42:00 PM 40.6455 -80.9819 288° West  Level FlightAware Approximate
Sun 03:42:46 PM 40.6650 -80.8678 281° West 343 395 16,600  Level Cleveland Center
Sun 03:43:46 PM 40.6833 -80.9992 280° West 356 410 18,100 1,600 Climbing Cleveland Center
Sun 03:44:46 PM 40.6994 -81.1308 279° West 366 421 19,800 1,450 Climbing Cleveland Center
Sun 03:45:46 PM 40.7197 -81.2733 281° West 371 427 21,000 1,100 Climbing Cleveland Center
Sun 03:46:46 PM 40.7375 -81.4081 280° West 371 427 22,000 500 Climbing Cleveland Center
Sun 03:47:46 PM 40.8117 -81.5214 311° West 371 427 22,000  Level Cleveland Center
Sun 03:48:46 PM 40.9003 -81.6242 319° Northwest 399 459 22,000  Level Cleveland Center
Sun 03:49:46 PM 40.9892 -81.7275 319° Northwest 422 486 22,000  Level Cleveland Center
Sun 03:50:46 PM 41.0756 -81.8281 319° Northwest 422 486 22,000  Level Cleveland Center
Sun 03:51:46 PM 41.1539 -81.9122 321° Northwest 411 473 22,000  Level Cleveland Center
Sun 03:52:46 PM 41.2358 -82.0189 316° Northwest 411 473 22,000  Level Cleveland Center
Sun 03:53:46 PM 41.3242 -82.1231 318° Northwest 411 473 22,000 -50 Level Cleveland Center
Sun 03:54:46 PM 41.4019 -82.2386 312° West 416 479 21,900 -1,300 Descending Cleveland Center
Sun 03:55:46 PM 41.4811 -82.3708 309° West 416 479 19,400 -2,450 Descending Cleveland Center
Sun 03:56:46 PM 41.5481 -82.4808 309° West 401 461 17,000 -2,300 Descending Cleveland Center
Sun 03:57:46 PM 41.6150 -82.5911 309° West 390 449 14,800 -2,155 Descending Cleveland Center
Sun 03:58:29 PM 41.6594 -82.6678 308° West 370 426 13,300 -2,000 Descending Cleveland Center
Sun 03:58:46 PM 41.6778 -82.6989 308° West 380 437 12,800 -1,279 Descending Cleveland Center
Sun 03:59:30 PM 41.7222 -82.7725 309° West 352 405 12,000 -800 Descending Cleveland Center
Sun 03:59:46 PM 41.7406 -82.7956 317° Northwest 367 422 12,000  Level Cleveland Center
Sun 04:00:37 PM 41.8036 -82.8756 317° Northwest 348 400 12,000  Level Cleveland Center
Sun 04:01:38 PM 41.8769 -82.9647 318° Northwest 351 404 12,000  Level Cleveland Center
Sun 04:02:45 PM 41.9603 -83.0628 319° Northwest 351 404 12,000  Level Cleveland Center
Sun 04:03:46 PM 42.0314 -83.1467 319° Northwest 343 395 12,000  Level Cleveland Center
Sun 04:04:46 PM 42.0739 -83.2017 316° Northwest 329 379 12,000 -450 Level Cleveland Center
Sun 04:05:46 PM 42.1483 -83.2269 346° North 255 293 11,100 -1,150 Descending Cleveland Center
Sun 04:06:46 PM 42.2219 -83.1992 16° North 247 284 9,700 -1,450 Descending Cleveland Center
Sun 04:07:46 PM 42.2836 -83.1483 31° Northeast 239 275 8,200 -1,210 Descending Cleveland Center
Sun 04:08:45 PM 42.3469 -83.1061 26° Northeast 230 265 7,300 -1,200 Descending Cleveland Center
Sun 04:09:51 PM 42.4103 -83.0806 17° North 228 262 5,700 -1,078 Descending Cleveland Center
Sun 04:10:53 PM 42.4483 -83.1467 308° West 192 221 5,000 -326 Descending Cleveland Center
Sun 04:12:00 PM 42.4117 -83.1958 225° Southwest 171 197 5,000 -414 Level Cleveland Center
Sun 04:12:49 PM 42.3758 -83.2197 206° Southwest 171 197 4,200 -980 Descending Cleveland Center

Login

Don't have an account? Register now (free) for customized features, flight alerts, and more!